Winnipeg, Canada
Current Conditions -  °F | °C
As of 7:00 AM on Wednesday 22 Oct 2014 (Local Time) from CYWG Reporting Station
Scattered Clouds Scattered Clouds  
Wind Chill: 55°   Ceiling: Unl
Heat Index: 55°   Visibility: 15mi
Dew Point: 41°   Wind: 29mph
Humidity: 58%   Direction: 170°S
Pressure: 29.74"   Gusts: 44mph
Location:  49.9°N, 97.14°W
Report Text: CYWG 221200Z 17025G38KT 15SM FEW140 SCT190 13/05 A2974 RMK AC2CI2 SLP074 DENSITY ALT 900FT
Loading
Personal Weather Stations






























Interactive Weather Map
Tropical Storm Tracking
New forecast layout! Learn more

10-Day Weather Forecast

Advertisements
Track Severe Weather on mobile